Terminal Aerodrome Forecast
Issued by NWS

Home | Current Version | Previous Version | Text Only | Print | Product List | Glossary Off
Versions: 1 2 3 4 5 6 7 8 9 10 11 12 13 14 15 16 17 18 19 20 21 22 23

828
FTUS43 KICT 200720 AAB
TAFRSL
TAF AMD
KRSL 200720Z 2007/2106 01013KT P6SM OVC004
     FM201500 01009KT P6SM SCT005 OVC015
     FM202100 01013KT P6SM OVC025=

USA.gov is the U.S. government's official web portal to all federal, state and local government web resources and services.